Time;durP1;ratioP1;P1;durP2;ratioP2;P2;SDS_P1;SDS_P2;PMS_P1;PMS_P2;Temp;Humidity;BMP_temperature;BMP_pressure;BME280_temperature;BME280_humidity;BME280_pressure;Samples;Min_cycle;Max_cycle;Signal;HPM_P1;HPM_P2
2022/09/10 00:00:37;;;;;;;10.73;8.47;;;22.20;99.90;;;;;;5057611;28;20438;-96
2022/09/10 00:03:04;;;;;;;12.40;8.60;;;22.20;99.90;;;;;;5040315;28;20424;-90
2022/09/10 00:05:30;;;;;;;15.73;10.20;;;22.20;99.90;;;;;;5039843;28;20478;-96
2022/09/10 00:07:55;;;;;;;13.50;8.47;;;22.20;99.90;;;;;;5040947;28;20412;-90
2022/09/10 00:10:21;;;;;;;10.77;8.57;;;22.20;99.90;;;;;;5040777;28;20195;-96
2022/09/10 00:12:47;;;;;;;12.37;9.20;;;22.20;99.90;;;;;;5039877;28;20222;-91
2022/09/10 00:15:16;;;;;;;11.63;8.10;;;22.20;99.90;;;;;;5040466;28;20194;-96
2022/09/10 00:17:42;;;;;;;9.40;7.37;;;22.10;99.90;;;;;;5041734;28;20170;-96
2022/09/10 00:20:09;;;;;;;8.93;7.43;;;22.10;99.90;;;;;;5062624;28;20445;-96
2022/09/10 00:22:35;;;;;;;10.23;7.90;;;22.00;99.90;;;;;;5058151;28;20806;-90
2022/09/10 00:25:00;;;;;;;8.83;7.77;;;21.90;99.90;;;;;;5056285;28;20444;-90
2022/09/10 00:27:26;;;;;;;8.80;7.40;;;21.80;99.90;;;;;;5038639;28;20181;-90
2022/09/10 00:29:53;;;;;;;9.33;7.37;;;21.80;99.90;;;;;;5056266;28;20685;-91
2022/09/10 00:32:20;;;;;;;9.40;7.70;;;21.80;99.90;;;;;;5038429;28;20471;-90
2022/09/10 00:34:46;;;;;;;11.47;7.00;;;21.70;99.90;;;;;;5039254;28;20437;-94
2022/09/10 00:37:13;;;;;;;9.43;5.90;;;21.70;99.90;;;;;;5056809;28;20466;-96
2022/09/10 00:39:39;;;;;;;10.00;7.40;;;21.70;99.90;;;;;;5038897;28;20431;-96
2022/09/10 00:42:05;;;;;;;9.97;6.37;;;21.60;99.90;;;;;;5038486;28;20430;-92
2022/09/10 00:44:39;;;;;;;8.93;6.37;;;21.70;99.90;;;;;;5038978;28;20265;-96
2022/09/10 00:47:28;;;;;;;7.40;6.07;;;21.70;99.90;;;;;;5042642;28;20794;-90
2022/09/10 00:50:28;;;;;;;9.20;6.27;;;21.70;99.90;;;;;;5042821;28;20454;-96
2022/09/10 00:52:58;;;;;;;7.60;6.00;;;21.70;99.90;;;;;;5005708;28;20481;-90
2022/09/10 00:55:24;;;;;;;6.90;5.80;;;21.70;99.90;;;;;;5037680;28;20445;-90
2022/09/10 00:57:53;;;;;;;6.13;5.57;;;21.70;99.90;;;;;;5038136;28;20781;-96
2022/09/10 01:00:20;;;;;;;6.60;5.80;;;21.70;99.90;;;;;;5059900;28;20249;-90
2022/09/10 01:02:46;;;;;;;7.63;5.67;;;21.70;99.90;;;;;;5039129;28;20760;-95
2022/09/10 01:05:13;;;;;;;7.70;6.37;;;21.60;99.90;;;;;;5039836;28;20496;-91
2022/09/10 01:07:39;;;;;;;9.10;6.97;;;21.50;99.90;;;;;;5057645;28;20411;-90
2022/09/10 01:10:20;;;;;;;8.90;7.20;;;21.50;99.90;;;;;;5057552;28;20441;-90
2022/09/10 01:13:16;;;;;;;7.87;6.97;;;21.50;99.90;;;;;;5039746;28;20514;-90
2022/09/10 01:16:21;;;;;;;8.60;6.70;;;21.50;99.90;;;;;;5042664;28;20458;-94
2022/09/10 01:19:11;;;;;;;10.07;8.20;;;21.50;99.90;;;;;;5045576;28;20418;-96
2022/09/10 01:22:04;;;;;;;12.33;8.20;;;21.50;99.90;;;;;;5037755;28;20422;-96
2022/09/10 01:25:14;;;;;;;9.37;8.37;;;21.50;99.90;;;;;;5040234;28;20814;-90
2022/09/10 01:27:53;;;;;;;12.10;7.93;;;21.50;99.90;;;;;;5037995;28;20446;-96
2022/09/10 01:30:36;;;;;;;9.90;7.80;;;21.50;99.90;;;;;;5037767;28;20454;-91
2022/09/10 01:33:04;;;;;;;9.43;7.47;;;21.50;99.90;;;;;;5055663;28;20462;-96
2022/09/10 01:35:42;;;;;;;9.23;7.67;;;21.40;99.90;;;;;;5055775;28;20436;-96
2022/09/10 01:38:14;;;;;;;10.47;7.30;;;21.40;99.90;;;;;;5038120;28;20992;-90
2022/09/10 01:40:41;;;;;;;12.37;9.00;;;21.40;99.90;;;;;;5037634;28;20959;-90
2022/09/10 01:43:09;;;;;;;9.40;7.23;;;21.40;99.90;;;;;;5055517;28;20453;-96
2022/09/10 01:45:48;;;;;;;11.10;7.80;;;21.40;99.90;;;;;;5055826;28;20998;-91
2022/09/10 01:48:20;;;;;;;9.13;7.67;;;21.50;99.90;;;;;;5055436;28;20482;-90
2022/09/10 01:51:05;;;;;;;10.23;7.60;;;21.50;99.90;;;;;;5055104;28;20439;-95
2022/09/10 01:53:33;;;;;;;10.63;7.70;;;21.50;99.90;;;;;;5037455;28;20472;-96
2022/09/10 01:56:34;;;;;;;10.30;8.03;;;21.50;99.90;;;;;;5040645;28;20474;-90
2022/09/10 01:59:10;;;;;;;10.43;7.80;;;21.50;99.90;;;;;;5054153;28;20442;-90
2022/09/10 02:01:44;;;;;;;8.70;6.90;;;21.50;99.90;;;;;;5059768;28;20407;-92
2022/09/10 02:04:13;;;;;;;10.50;7.17;;;21.50;99.90;;;;;;5056044;28;20437;-90
2022/09/10 02:06:42;;;;;;;8.00;6.87;;;21.50;99.90;;;;;;5066453;28;20950;-96
2022/09/10 02:09:09;;;;;;;11.33;8.20;;;21.50;99.90;;;;;;5055702;28;20426;-90
2022/09/10 02:11:51;;;;;;;8.60;7.37;;;21.50;99.90;;;;;;5054197;28;20813;-90
2022/09/10 02:14:20;;;;;;;9.93;7.80;;;21.50;99.90;;;;;;5055401;28;20460;-90
2022/09/10 02:16:57;;;;;;;11.30;7.50;;;21.40;99.90;;;;;;5054683;28;20423;-90
2022/09/10 02:19:26;;;;;;;10.10;6.57;;;21.40;99.90;;;;;;5054765;28;20426;-90
2022/09/10 02:21:57;;;;;;;7.80;6.50;;;21.40;99.90;;;;;;5055117;28;20437;-90
2022/09/10 02:24:23;;;;;;;10.00;7.80;;;21.40;99.90;;;;;;5054616;28;20423;-91
2022/09/10 02:26:49;;;;;;;9.23;7.33;;;21.40;99.90;;;;;;5053927;28;20430;-96
2022/09/10 02:29:16;;;;;;;9.93;7.77;;;21.40;99.90;;;;;;5058370;28;20667;-96
2022/09/10 02:31:42;;;;;;;7.50;6.00;;;21.40;99.90;;;;;;5058626;28;20480;-90
2022/09/10 02:34:09;;;;;;;7.27;5.90;;;21.30;99.90;;;;;;5058543;28;20431;-90
2022/09/10 02:36:35;;;;;;;8.90;6.70;;;21.30;99.90;;;;;;5059732;28;20442;-96
2022/09/10 02:39:03;;;;;;;11.30;7.47;;;21.30;99.90;;;;;;5060234;28;20425;-90
2022/09/10 02:41:44;;;;;;;7.07;6.10;;;21.20;99.90;;;;;;5060751;28;20483;-96
2022/09/10 02:44:09;;;;;;;7.40;6.17;;;21.20;99.90;;;;;;5061540;28;20577;-96
2022/09/10 02:46:35;;;;;;;8.13;6.30;;;21.20;99.90;;;;;;5059459;28;20464;-96
2022/09/10 02:49:01;;;;;;;6.87;5.90;;;21.20;99.90;;;;;;5058005;28;20666;-96
2022/09/10 02:51:27;;;;;;;9.17;6.50;;;21.20;99.90;;;;;;5057870;28;20692;-96
2022/09/10 02:53:54;;;;;;;7.97;6.50;;;21.10;99.90;;;;;;5058144;28;20437;-96
2022/09/10 02:56:20;;;;;;;7.07;5.87;;;21.10;99.90;;;;;;5058716;28;20738;-90
2022/09/10 02:58:46;;;;;;;7.63;6.33;;;21.10;99.90;;;;;;5060231;28;20446;-95
2022/09/10 03:01:14;;;;;;;9.30;6.43;;;21.10;99.90;;;;;;5059966;28;20427;-90
2022/09/10 03:03:41;;;;;;;6.60;5.83;;;21.10;99.90;;;;;;5059720;28;20609;-90
2022/09/10 03:06:07;;;;;;;6.10;5.43;;;21.10;99.90;;;;;;5060940;28;20477;-96
2022/09/10 03:08:34;;;;;;;7.40;5.70;;;21.00;99.90;;;;;;5061587;28;20505;-90
2022/09/10 03:11:00;;;;;;;6.10;5.00;;;21.00;99.90;;;;;;5067368;28;20446;-95
2022/09/10 03:13:27;;;;;;;7.63;5.80;;;20.90;99.90;;;;;;5072203;28;20423;-94
2022/09/10 03:15:54;;;;;;;6.13;4.80;;;20.90;99.90;;;;;;5068296;28;20232;-91
2022/09/10 03:18:23;;;;;;;6.63;4.83;;;20.90;99.90;;;;;;5059613;28;20410;-96
2022/09/10 03:20:49;;;;;;;5.63;4.67;;;20.90;99.90;;;;;;5056900;28;20516;-90
2022/09/10 03:23:16;;;;;;;5.23;4.57;;;20.80;99.90;;;;;;5057702;28;20438;-91
2022/09/10 03:25:41;;;;;;;5.17;4.30;;;20.80;99.90;;;;;;5057765;28;20457;-95
2022/09/10 03:28:08;;;;;;;5.17;4.30;;;20.70;99.90;;;;;;5058901;28;20411;-96
2022/09/10 03:30:35;;;;;;;7.83;4.53;;;20.70;99.90;;;;;;5058763;28;20284;-90
2022/09/10 03:33:01;;;;;;;6.23;4.13;;;20.70;99.90;;;;;;5058729;28;20497;-90
2022/09/10 03:35:27;;;;;;;5.63;5.03;;;20.70;99.90;;;;;;5057967;28;20809;-96
2022/09/10 03:37:52;;;;;;;6.30;4.80;;;20.70;99.90;;;;;;5063395;28;20423;-95
2022/09/10 03:40:18;;;;;;;5.20;4.70;;;20.60;99.90;;;;;;5058796;28;20194;-96
2022/09/10 03:42:44;;;;;;;6.97;5.10;;;20.60;99.90;;;;;;5059010;28;20185;-95
2022/09/10 03:45:10;;;;;;;5.63;4.20;;;20.60;99.90;;;;;;5059088;28;20280;-91
2022/09/10 03:47:36;;;;;;;5.70;4.33;;;20.60;99.90;;;;;;5057344;28;20430;-90
2022/09/10 03:50:03;;;;;;;4.60;4.20;;;20.50;99.90;;;;;;5059473;28;20809;-92
2022/09/10 03:52:29;;;;;;;5.40;4.40;;;20.50;99.90;;;;;;5064959;28;20218;-96
2022/09/10 03:54:55;;;;;;;4.30;3.90;;;20.50;99.90;;;;;;5065879;28;21838;-96
2022/09/10 03:57:22;;;;;;;4.53;4.13;;;20.50;99.90;;;;;;5057628;28;20325;-96
2022/09/10 03:59:48;;;;;;;5.40;4.60;;;20.50;99.90;;;;;;5058097;28;20534;-96
2022/09/10 04:02:14;;;;;;;4.03;3.63;;;20.40;99.90;;;;;;5057090;28;20411;-89
2022/09/10 04:04:41;;;;;;;5.10;4.27;;;20.40;99.90;;;;;;5056685;28;20452;-96
2022/09/10 04:07:09;;;;;;;6.20;4.97;;;20.40;99.90;;;;;;5056693;28;20430;-96
2022/09/10 04:09:35;;;;;;;4.97;4.47;;;20.40;99.90;;;;;;5056633;28;20438;-96
2022/09/10 04:12:01;;;;;;;4.73;4.20;;;20.40;99.90;;;;;;5058337;28;20485;-93
2022/09/10 04:14:27;;;;;;;5.47;4.97;;;20.30;99.90;;;;;;5057803;28;20200;-96
2022/09/10 04:16:53;;;;;;;5.23;4.83;;;20.30;99.90;;;;;;5059010;28;20438;-96
2022/09/10 04:19:18;;;;;;;6.57;5.90;;;20.30;99.90;;;;;;5064595;28;20206;-96
2022/09/10 04:21:44;;;;;;;6.43;5.80;;;20.30;99.90;;;;;;5059143;28;20181;-90
2022/09/10 04:24:11;;;;;;;6.57;5.70;;;20.30;99.90;;;;;;5058425;28;20209;-90
2022/09/10 04:26:37;;;;;;;9.67;7.17;;;20.20;99.90;;;;;;5057029;28;20176;-96
2022/09/10 04:29:02;;;;;;;9.63;7.03;;;20.20;99.90;;;;;;5056965;28;20419;-96
2022/09/10 04:31:28;;;;;;;8.90;7.50;;;20.20;99.90;;;;;;5060195;28;20216;-96
2022/09/10 04:33:54;;;;;;;6.60;6.00;;;20.20;99.90;;;;;;5063226;28;20189;-90
2022/09/10 04:36:19;;;;;;;12.30;8.13;;;20.20;99.90;;;;;;5058998;28;20192;-96
2022/09/10 04:38:45;;;;;;;8.13;6.10;;;20.20;99.90;;;;;;5060826;28;20185;-94
2022/09/10 04:41:14;;;;;;;7.40;6.67;;;20.20;99.90;;;;;;5056719;28;20195;-91
2022/09/10 04:43:40;;;;;;;11.07;7.70;;;20.10;99.90;;;;;;5056757;28;20174;-96
2022/09/10 04:46:05;;;;;;;7.80;7.00;;;20.10;99.90;;;;;;5057518;28;20509;-96
2022/09/10 04:48:32;;;;;;;9.93;7.60;;;20.10;99.90;;;;;;5058669;28;20189;-89
2022/09/10 04:50:58;;;;;;;9.63;7.10;;;20.10;99.90;;;;;;5056485;28;20205;-90
2022/09/10 04:53:26;;;;;;;8.13;7.33;;;20.10;99.90;;;;;;5056228;28;20426;-90
2022/09/10 04:55:53;;;;;;;10.77;8.07;;;20.10;99.90;;;;;;5057212;28;20985;-90
2022/09/10 04:58:20;;;;;;;8.43;7.40;;;20.10;99.90;;;;;;5042517;28;20996;-90
2022/09/10 05:00:45;;;;;;;8.67;7.70;;;20.10;99.90;;;;;;5060263;28;20516;-96
2022/09/10 05:03:12;;;;;;;8.10;7.00;;;20.20;99.90;;;;;;5052250;28;20430;-90
2022/09/10 05:05:38;;;;;;;8.33;7.33;;;20.10;99.90;;;;;;5056055;28;20255;-96
2022/09/10 05:08:04;;;;;;;7.80;7.00;;;20.10;99.90;;;;;;5038201;28;20517;-96
2022/09/10 05:10:30;;;;;;;8.67;7.10;;;20.10;99.90;;;;;;5043754;28;20484;-96
2022/09/10 05:12:56;;;;;;;10.07;7.70;;;20.10;99.90;;;;;;5059174;28;20239;-96
2022/09/10 05:15:22;;;;;;;7.70;6.90;;;20.10;99.90;;;;;;5056823;28;20444;-91
2022/09/10 05:17:48;;;;;;;9.37;7.57;;;20.10;99.90;;;;;;5039433;28;20174;-90
2022/09/10 05:20:14;;;;;;;10.03;7.63;;;20.10;99.90;;;;;;5039717;28;20201;-96
2022/09/10 05:22:41;;;;;;;8.10;7.20;;;20.10;99.90;;;;;;5040205;28;20951;-90
2022/09/10 05:25:07;;;;;;;7.33;6.37;;;20.10;99.90;;;;;;5039721;28;20205;-96
2022/09/10 05:27:33;;;;;;;8.27;7.40;;;20.10;99.90;;;;;;5056698;28;20424;-91
2022/09/10 05:29:59;;;;;;;9.50;7.50;;;20.10;99.90;;;;;;5039488;28;20793;-90
2022/09/10 05:32:24;;;;;;;9.70;7.10;;;20.10;99.90;;;;;;5038796;28;20683;-91
2022/09/10 05:34:50;;;;;;;7.47;6.67;;;20.10;99.90;;;;;;5038868;28;20400;-96
2022/09/10 05:37:17;;;;;;;7.00;6.30;;;20.10;99.90;;;;;;5056979;28;20589;-96
2022/09/10 05:39:44;;;;;;;7.37;6.67;;;20.10;99.90;;;;;;5040898;28;20197;-91
2022/09/10 05:42:10;;;;;;;7.40;6.60;;;20.00;99.90;;;;;;5047135;28;20418;-95
2022/09/10 05:44:36;;;;;;;7.80;7.03;;;20.00;99.90;;;;;;5074598;28;20435;-90
2022/09/10 05:47:02;;;;;;;9.53;7.00;;;20.00;99.90;;;;;;5040951;28;20519;-90
2022/09/10 05:49:29;;;;;;;8.17;6.47;;;20.00;99.90;;;;;;5055756;28;20192;-96
2022/09/10 05:51:56;;;;;;;7.77;7.07;;;20.00;99.90;;;;;;5038346;28;20507;-90
2022/09/10 05:54:22;;;;;;;8.00;7.20;;;20.00;99.90;;;;;;5041706;28;20433;-91
2022/09/10 05:56:48;;;;;;;7.40;6.50;;;20.00;99.90;;;;;;5046904;28;20517;-91
2022/09/10 05:59:13;;;;;;;10.33;6.90;;;19.90;99.90;;;;;;5057341;28;20194;-96
2022/09/10 06:01:39;;;;;;;12.43;7.63;;;19.90;99.90;;;;;;5056488;28;20181;-96
2022/09/10 06:04:05;;;;;;;10.20;7.20;;;19.90;99.90;;;;;;5055720;28;20287;-90
2022/09/10 06:06:30;;;;;;;8.73;7.40;;;19.90;99.90;;;;;;5055732;28;20203;-91
2022/09/10 06:08:56;;;;;;;9.97;6.50;;;19.90;99.90;;;;;;5057054;28;20181;-94
2022/09/10 06:11:22;;;;;;;7.47;6.67;;;19.90;99.90;;;;;;5055615;28;20216;-92
2022/09/10 06:13:49;;;;;;;11.90;7.20;;;19.90;99.90;;;;;;5056742;28;20407;-91
2022/09/10 06:16:15;;;;;;;9.23;6.07;;;19.90;99.90;;;;;;5056410;28;20469;-91
2022/09/10 06:18:41;;;;;;;8.30;6.23;;;19.90;99.90;;;;;;5060558;28;20437;-95
2022/09/10 06:21:16;;;;;;;8.73;7.57;;;19.90;99.90;;;;;;5054472;28;20823;-95
2022/09/10 06:23:43;;;;;;;8.17;6.53;;;19.90;99.90;;;;;;5062481;28;20413;-96
2022/09/10 06:26:11;;;;;;;8.03;6.47;;;19.90;99.90;;;;;;5056840;28;20844;-95
2022/09/10 06:28:37;;;;;;;9.07;7.17;;;19.90;99.90;;;;;;5055951;28;20808;-96
2022/09/10 06:31:03;;;;;;;10.10;6.83;;;19.90;99.90;;;;;;5055173;28;20540;-90
2022/09/10 06:33:29;;;;;;;11.97;7.83;;;20.00;99.90;;;;;;5055794;28;20267;-91
2022/09/10 06:35:56;;;;;;;7.20;6.50;;;20.00;99.90;;;;;;5054734;28;20957;-91
2022/09/10 06:38:23;;;;;;;9.40;8.03;;;20.00;99.90;;;;;;5054167;28;20422;-90
2022/09/10 06:40:59;;;;;;;7.70;6.83;;;20.00;99.90;;;;;;5057047;28;20451;-96
2022/09/10 06:43:26;;;;;;;9.63;7.10;;;20.10;99.90;;;;;;5054732;28;20491;-96
2022/09/10 06:45:55;;;;;;;7.40;6.70;;;20.10;99.90;;;;;;5056468;28;20442;-91
2022/09/10 06:48:26;;;;;;;7.80;6.33;;;20.10;99.90;;;;;;5054605;28;20414;-94
2022/09/10 06:51:01;;;;;;;13.23;9.90;;;20.10;99.90;;;;;;5055325;28;20447;-91
2022/09/10 06:53:28;;;;;;;22.67;16.40;;;20.20;99.90;;;;;;5054894;28;20425;-91
2022/09/10 06:55:54;;;;;;;23.07;15.63;;;20.20;99.90;;;;;;5056666;28;20466;-96
2022/09/10 06:58:22;;;;;;;21.00;15.07;;;20.20;99.90;;;;;;5058224;28;20410;-96
2022/09/10 07:00:49;;;;;;;16.70;11.80;;;20.30;99.90;;;;;;5053391;28;20461;-90
2022/09/10 07:03:16;;;;;;;20.27;12.80;;;20.30;99.90;;;;;;5072664;28;20771;-90
2022/09/10 07:05:44;;;;;;;8.73;7.40;;;20.30;99.90;;;;;;5061532;28;20556;-96
2022/09/10 07:08:14;;;;;;;9.37;8.30;;;20.40;99.90;;;;;;5054667;28;20445;-96
2022/09/10 07:10:43;;;;;;;14.97;10.10;;;20.40;99.90;;;;;;5055427;28;20790;-96
2022/09/10 07:13:11;;;;;;;12.00;10.03;;;20.40;99.90;;;;;;5037950;28;20520;-96
2022/09/10 07:15:45;;;;;;;9.03;6.80;;;20.50;99.90;;;;;;5042970;28;20497;-91
2022/09/10 07:18:15;;;;;;;6.70;5.10;;;20.50;99.90;;;;;;5047817;28;20421;-90
2022/09/10 07:20:45;;;;;;;7.30;5.73;;;20.50;99.90;;;;;;5046989;28;20529;-93
2022/09/10 07:23:13;;;;;;;10.90;6.70;;;20.50;99.90;;;;;;5045473;28;20475;-96
2022/09/10 07:25:39;;;;;;;10.70;9.27;;;20.50;99.90;;;;;;5032298;28;20451;-91
2022/09/10 07:28:06;;;;;;;13.77;11.87;;;20.50;99.90;;;;;;5018862;28;20418;-91
2022/09/10 07:30:34;;;;;;;13.33;11.70;;;20.50;99.90;;;;;;5019662;28;20444;-96
2022/09/10 07:33:00;;;;;;;15.70;11.70;;;20.40;99.90;;;;;;5025483;28;20491;-96
2022/09/10 07:35:26;;;;;;;13.40;9.30;;;20.40;99.90;;;;;;5045992;28;20450;-96
2022/09/10 07:37:51;;;;;;;14.40;10.57;;;20.50;99.90;;;;;;5021097;28;20186;-93
2022/09/10 07:40:17;;;;;;;11.90;9.67;;;20.50;99.90;;;;;;5038458;28;20210;-90
2022/09/10 07:42:43;;;;;;;13.23;10.17;;;20.60;99.90;;;;;;5039084;28;20256;-91
2022/09/10 07:45:14;;;;;;;9.83;8.00;;;20.60;99.90;;;;;;5039772;28;20187;-91
2022/09/10 07:47:46;;;;;;;7.23;6.10;;;20.70;99.90;;;;;;5022264;28;20434;-96
2022/09/10 07:50:11;;;;;;;8.70;7.40;;;20.70;99.90;;;;;;5024970;28;20944;-91
2022/09/10 07:52:37;;;;;;;15.60;12.83;;;20.70;99.90;;;;;;5022602;28;20475;-91
2022/09/10 07:55:03;;;;;;;16.10;11.80;;;20.80;99.90;;;;;;5020734;28;20198;-91
2022/09/10 07:57:30;;;;;;;7.70;6.00;;;20.80;99.90;;;;;;5052321;28;20516;-96
2022/09/10 07:59:56;;;;;;;7.07;5.87;;;20.90;99.90;;;;;;5057509;28;20869;-90
2022/09/10 08:02:24;;;;;;;5.70;4.70;;;20.90;99.90;;;;;;5062578;28;20792;-96
2022/09/10 08:04:50;;;;;;;8.43;4.17;;;21.00;99.90;;;;;;5059859;28;20446;-93
2022/09/10 08:07:16;;;;;;;7.67;5.70;;;21.00;99.90;;;;;;5059840;28;20777;-93
2022/09/10 08:09:42;;;;;;;6.13;4.10;;;21.00;99.90;;;;;;5057871;28;20293;-91
2022/09/10 08:12:08;;;;;;;7.00;4.27;;;21.00;99.90;;;;;;5056839;28;20558;-95
2022/09/10 08:14:35;;;;;;;5.13;4.00;;;21.00;99.90;;;;;;5059021;28;20209;-91
2022/09/10 08:17:01;;;;;;;6.43;4.30;;;21.00;99.90;;;;;;5062716;28;20747;-96
2022/09/10 08:19:26;;;;;;;6.33;3.50;;;21.00;99.90;;;;;;5065178;28;20485;-91
2022/09/10 08:21:52;;;;;;;5.90;3.97;;;21.10;99.90;;;;;;5063271;28;20182;-92
2022/09/10 08:24:17;;;;;;;4.83;3.90;;;21.10;99.90;;;;;;5058027;28;20193;-91
2022/09/10 08:26:43;;;;;;;4.50;3.80;;;21.20;99.90;;;;;;5058731;28;20620;-96
2022/09/10 08:29:09;;;;;;;5.93;4.50;;;21.30;99.90;;;;;;5058943;28;20197;-90
2022/09/10 08:31:35;;;;;;;5.60;5.00;;;21.50;99.90;;;;;;5062981;28;20221;-91
2022/09/10 08:34:02;;;;;;;6.67;5.27;;;21.50;99.90;;;;;;5062421;28;20421;-91
2022/09/10 08:36:28;;;;;;;7.33;5.50;;;21.60;99.90;;;;;;5063009;28;20484;-91
2022/09/10 08:38:53;;;;;;;7.50;5.00;;;21.60;99.90;;;;;;5059005;28;20788;-96
2022/09/10 08:41:34;;;;;;;9.00;5.87;;;21.60;99.90;;;;;;5068526;28;20177;-94
2022/09/10 08:44:10;;;;;;;16.90;7.47;;;21.50;99.90;;;;;;5055958;28;20161;-95
2022/09/10 08:46:43;;;;;;;8.80;5.07;;;21.50;99.90;;;;;;5054904;28;20434;-94
2022/09/10 08:49:32;;;;;;;8.00;4.87;;;21.50;99.90;;;;;;5062002;28;20886;-92
2022/09/10 08:52:28;;;;;;;7.77;5.40;;;21.60;99.90;;;;;;5055391;28;20565;-96
2022/09/10 08:54:59;;;;;;;11.17;6.47;;;21.60;99.90;;;;;;5059413;28;20435;-94
2022/09/10 08:57:37;;;;;;;7.30;5.83;;;21.60;99.90;;;;;;5057034;28;20494;-91
2022/09/10 09:00:05;;;;;;;6.83;5.40;;;21.70;99.90;;;;;;5055464;28;20447;-94
2022/09/10 09:02:45;;;;;;;8.03;6.13;;;21.80;99.90;;;;;;5057248;28;20690;-94
2022/09/10 09:05:23;;;;;;;6.60;5.60;;;21.90;99.90;;;;;;5057977;28;20454;-95
2022/09/10 09:07:51;;;;;;;6.53;5.13;;;22.00;99.90;;;;;;5057807;28;20933;-90
2022/09/10 09:10:31;;;;;;;8.20;4.97;;;22.10;99.90;;;;;;5057633;28;20955;-93
2022/09/10 09:13:25;;;;;;;10.70;8.50;;;22.20;99.90;;;;;;5057361;28;20490;-92
2022/09/10 09:16:08;;;;;;;9.67;4.60;;;22.30;99.90;;;;;;5057598;28;20457;-92
2022/09/10 09:19:13;;;;;;;5.30;4.80;;;22.40;99.90;;;;;;5058927;28;20404;-92
2022/09/10 09:21:41;;;;;;;5.20;4.40;;;22.40;99.90;;;;;;5063111;28;20433;-93
2022/09/10 09:24:35;;;;;;;6.17;5.20;;;22.50;99.90;;;;;;5057604;28;20443;-92
2022/09/10 09:27:08;;;;;;;4.03;3.50;;;22.60;99.90;;;;;;5054870;28;20412;-93
2022/09/10 09:30:02;;;;;;;3.60;3.23;;;22.60;99.90;;;;;;5054458;28;20499;-93
2022/09/10 09:32:33;;;;;;;4.70;4.30;;;22.70;99.90;;;;;;5053741;28;20533;-93
2022/09/10 09:35:14;;;;;;;3.90;3.60;;;22.70;99.90;;;;;;5054064;28;20455;-92
2022/09/10 09:37:40;;;;;;;4.93;3.23;;;22.70;99.90;;;;;;5054862;28;20413;-93
2022/09/10 09:40:20;;;;;;;5.07;3.80;;;22.80;99.90;;;;;;5054250;28;20452;-94
2022/09/10 09:42:56;;;;;;;4.80;3.37;;;22.80;99.90;;;;;;5055506;28;20809;-93
2022/09/10 09:45:34;;;;;;;4.47;4.07;;;22.80;99.90;;;;;;5054111;28;20464;-92
2022/09/10 09:48:00;;;;;;;5.83;3.23;;;22.80;99.90;;;;;;5055224;28;20388;-92
2022/09/10 09:50:30;;;;;;;4.23;3.00;;;22.90;99.90;;;;;;5055058;28;20456;-93
2022/09/10 09:52:56;;;;;;;3.33;3.03;;;22.90;99.90;;;;;;5059332;28;20510;-93
2022/09/10 09:55:27;;;;;;;3.13;2.93;;;23.00;99.90;;;;;;5060305;28;20969;-94
2022/09/10 09:58:21;;;;;;;2.87;2.50;;;23.00;99.90;;;;;;5056597;28;20178;-93
2022/09/10 10:01:02;;;;;;;3.40;3.00;;;23.00;99.90;;;;;;5056231;28;20514;-93
2022/09/10 10:03:31;;;;;;;3.20;2.83;;;23.00;99.90;;;;;;5055145;28;20417;-95
2022/09/10 10:06:08;;;;;;;4.33;3.63;;;23.00;99.90;;;;;;5054573;28;20986;-95
2022/09/10 10:08:51;;;;;;;3.10;2.90;;;23.10;99.90;;;;;;5055283;28;20516;-94
2022/09/10 10:11:20;;;;;;;4.17;3.13;;;23.10;99.90;;;;;;5055812;28;20569;-93
2022/09/10 10:13:50;;;;;;;3.73;3.43;;;23.20;99.90;;;;;;5061656;28;20417;-94
2022/09/10 10:16:18;;;;;;;3.43;3.13;;;23.20;99.90;;;;;;5053726;28;20429;-95
2022/09/10 10:18:45;;;;;;;3.23;2.93;;;23.20;99.90;;;;;;5053274;28;20502;-94
2022/09/10 10:21:19;;;;;;;4.60;3.10;;;23.20;99.90;;;;;;5054984;28;20462;-93
2022/09/10 10:23:46;;;;;;;3.37;3.07;;;23.20;99.90;;;;;;5053639;28;20438;-93
2022/09/10 10:26:16;;;;;;;3.90;3.40;;;23.30;99.90;;;;;;5053565;28;20433;-91
2022/09/10 10:28:58;;;;;;;3.57;3.10;;;23.30;99.90;;;;;;5053963;28;20440;-95
2022/09/10 10:31:37;;;;;;;6.93;3.63;;;23.30;99.90;;;;;;5054326;28;20471;-95
2022/09/10 10:34:09;;;;;;;3.40;3.13;;;23.30;99.90;;;;;;5057452;28;20418;-91
2022/09/10 10:36:43;;;;;;;3.00;2.63;;;23.40;99.90;;;;;;5055877;28;20428;-94
2022/09/10 10:39:13;;;;;;;2.80;2.60;;;23.40;99.90;;;;;;5055402;28;20448;-95
2022/09/10 10:42:08;;;;;;;3.70;2.73;;;23.40;99.90;;;;;;5055779;28;20427;-96
2022/09/10 10:45:22;;;;;;;3.17;2.63;;;23.50;99.90;;;;;;5056100;28;20445;-93
2022/09/10 10:48:00;;;;;;;5.00;2.87;;;23.50;99.90;;;;;;5011570;28;20436;-94
2022/09/10 10:50:35;;;;;;;3.43;3.13;;;23.50;99.90;;;;;;5056668;28;20511;-94
2022/09/10 10:53:34;;;;;;;2.77;2.57;;;23.50;99.90;;;;;;5060043;28;20467;-96
2022/09/10 10:56:21;;;;;;;3.03;2.83;;;23.50;99.90;;;;;;5062494;28;21074;-93
2022/09/10 10:58:56;;;;;;;2.33;2.17;;;23.50;99.90;;;;;;5057321;28;20418;-91
2022/09/10 11:01:25;;;;;;;3.00;2.70;;;23.60;99.90;;;;;;5070385;28;20432;-92
2022/09/10 11:04:28;;;;;;;2.37;2.17;;;23.60;99.90;;;;;;5058451;28;20402;-92
2022/09/10 11:07:13;;;;;;;3.17;2.50;;;23.60;99.90;;;;;;5059919;28;20429;-95
2022/09/10 11:09:45;;;;;;;3.93;1.93;;;23.60;99.90;;;;;;5058584;28;20424;-94
2022/09/10 11:12:30;;;;;;;2.13;2.03;;;23.70;99.90;;;;;;5057356;28;21041;-92
2022/09/10 11:15:23;;;;;;;2.30;2.00;;;23.70;99.90;;;;;;5055961;28;20980;-94
2022/09/10 11:17:54;;;;;;;2.87;2.50;;;23.70;99.90;;;;;;5057106;28;20523;-95
2022/09/10 11:20:26;;;;;;;1.80;1.70;;;23.80;99.90;;;;;;5056276;28;20466;-94
2022/09/10 11:22:59;;;;;;;2.40;1.67;;;23.80;99.90;;;;;;5058329;28;20421;-93
2022/09/10 11:25:28;;;;;;;3.27;2.00;;;23.80;99.90;;;;;;5058412;28;20511;-95
2022/09/10 11:28:11;;;;;;;3.40;2.23;;;23.80;99.90;;;;;;5058031;28;20403;-92
2022/09/10 11:30:39;;;;;;;3.43;2.10;;;23.90;99.90;;;;;;5057907;28;20460;-94
2022/09/10 11:33:32;;;;;;;2.00;1.80;;;23.90;99.90;;;;;;5058839;28;20465;-95
2022/09/10 11:36:19;;;;;;;2.10;1.83;;;24.00;99.90;;;;;;5057863;28;21004;-95
2022/09/10 11:38:58;;;;;;;3.17;2.30;;;24.00;99.90;;;;;;5058913;28;20410;-92
2022/09/10 11:41:30;;;;;;;2.63;2.20;;;24.00;99.90;;;;;;5063991;28;20441;-92
2022/09/10 11:44:13;;;;;;;2.70;2.50;;;24.00;99.90;;;;;;5057095;28;20396;-95
2022/09/10 11:47:03;;;;;;;2.53;2.40;;;24.00;99.90;;;;;;5056715;28;20454;-92
2022/09/10 11:50:05;;;;;;;2.83;2.63;;;24.10;99.90;;;;;;5057211;28;20438;-93
2022/09/10 11:52:33;;;;;;;2.60;2.40;;;24.10;99.90;;;;;;5055606;28;20477;-96
2022/09/10 11:55:02;;;;;;;2.93;2.73;;;24.20;99.90;;;;;;5059510;28;20969;-93
2022/09/10 11:57:58;;;;;;;2.40;2.20;;;24.20;99.90;;;;;;5058535;28;20503;-94
2022/09/10 12:00:24;;;;;;;2.93;2.57;;;24.30;99.90;;;;;;5057199;28;20454;-92
2022/09/10 12:03:29;;;;;;;3.27;2.30;;;24.30;99.90;;;;;;5057598;28;20411;-94
2022/09/10 12:06:01;;;;;;;2.70;2.50;;;24.30;99.90;;;;;;5056900;28;20459;-95
2022/09/10 12:08:47;;;;;;;2.90;2.40;;;24.30;99.90;;;;;;5058105;28;20493;-95
2022/09/10 12:11:30;;;;;;;2.93;2.43;;;24.20;99.90;;;;;;5058751;28;20778;-95
2022/09/10 12:13:57;;;;;;;2.47;2.27;;;24.20;99.90;;;;;;5059216;28;20414;-93
2022/09/10 12:16:54;;;;;;;2.50;2.33;;;24.20;99.90;;;;;;5067658;28;20422;-96
2022/09/10 12:19:50;;;;;;;2.63;2.43;;;24.20;99.90;;;;;;5055929;28;20492;-92
2022/09/10 12:22:26;;;;;;;2.63;2.40;;;24.20;99.90;;;;;;5055615;28;20563;-92
2022/09/10 12:25:21;;;;;;;4.00;2.20;;;24.20;99.90;;;;;;5055988;28;20463;-92
2022/09/10 12:27:50;;;;;;;2.30;2.10;;;24.30;99.90;;;;;;5056152;28;20932;-92
2022/09/10 12:30:28;;;;;;;2.83;2.63;;;24.30;99.90;;;;;;5057188;28;20453;-93
2022/09/10 12:32:59;;;;;;;2.47;2.30;;;24.40;99.90;;;;;;5057715;28;20540;-96
2022/09/10 12:35:34;;;;;;;2.30;2.20;;;24.40;99.90;;;;;;5056934;28;20446;-95
2022/09/10 12:38:40;;;;;;;3.43;3.10;;;24.50;99.90;;;;;;5058157;28;20418;-92
2022/09/10 12:41:22;;;;;;;2.90;2.70;;;24.50;99.90;;;;;;5057661;28;20512;-96
2022/09/10 12:43:48;;;;;;;2.50;2.13;;;24.50;99.90;;;;;;5056958;28;20414;-92
2022/09/10 12:46:13;;;;;;;2.20;2.00;;;24.50;99.90;;;;;;5058240;28;20434;-92
2022/09/10 12:48:54;;;;;;;3.37;2.57;;;24.50;99.90;;;;;;5060737;28;20169;-92
2022/09/10 12:51:27;;;;;;;3.20;2.60;;;24.50;99.90;;;;;;5056418;28;20187;-92
2022/09/10 12:54:27;;;;;;;2.47;2.20;;;24.50;99.90;;;;;;5055673;28;20399;-96
2022/09/10 12:57:14;;;;;;;2.73;2.27;;;24.60;99.90;;;;;;5055466;28;20831;-94
2022/09/10 12:59:50;;;;;;;4.23;2.53;;;24.60;99.90;;;;;;5052377;28;20511;-96
2022/09/10 13:02:21;;;;;;;2.20;2.10;;;24.60;99.90;;;;;;5053964;28;20433;-95
2022/09/10 13:04:55;;;;;;;2.00;1.90;;;24.60;99.90;;;;;;5053959;28;20955;-92
2022/09/10 13:07:26;;;;;;;2.27;2.07;;;24.60;99.90;;;;;;5054685;28;20418;-94
2022/09/10 13:10:17;;;;;;;1.80;1.70;;;24.60;99.90;;;;;;5054726;28;20435;-92